Amidon, North Dakota
Current Conditions -  °F | °C
As of 11:56 PM on Saturday 20 Dec 2014 (Local Time) from KDIK Reporting Station
Clear Clear  
Wind Chill: 16°   Ceiling: Unl
Heat Index: 24°   Visibility: 10mi
Dew Point: 18°   Wind: 7mph
Humidity: 77%   Direction: 190°S
Pressure: 29.69"   Gusts: NA
Location:  46.48°N, 103.32°W
Report Text: KDIK 210656Z AUTO 19006KT 10SM CLR M04/M08 A2969 RMK AO2 SLP074 T10441078 400891056
Loading
Personal Weather Stations






























Interactive Weather Map New forecast layout! Learn more

10-Day Weather Forecast

Advertisements
Track Severe Weather on mobile